Betania, Argentina
Current Conditions -  °F | °C
As of 4:00 PM on Sunday 21 Dec 2014 (Local Time) from SASJ Reporting Station
Overcast Overcast  
Wind Chill: 73°   Ceiling: 10000
Heat Index: 73°   Visibility: 6mi
Dew Point: 55°   Wind: 0mph
Humidity: 53%   Direction: NA
Pressure: 29.77"   Gusts: NA
Location:  24.68°S, 65.12°W
Report Text: SASJ 211900Z 00000KT 9999 SCT030 OVC10023/13 Q1008
Loading
Personal Weather Stations






























Interactive Weather Map New forecast layout! Learn more

10-Day Weather Forecast

Advertisements
Track Severe Weather on mobile